Terminal Aerodrome Forecast
Issued by NWS Cleveland, OH

Home | Current Version | Previous Version | Text Only | Print | Product List | Glossary Off
Versions: 1 2 3 4 5 6 7 8 9 10 11 12 13 14 15

463
FTUS41 KCLE 161932 AAA
TAFYNG
TAF AMD
KYNG 161932Z 1620/1718 29010KT P6SM OVC035
      TEMPO 1620/1622 5SM -SHSN OVC025
     FM162200 30006KT P6SM OVC035
     FM170200 VRB02KT P6SM SCT070
     FM171200 16006KT P6SM BKN250=

USA.gov is the U.S. government's official web portal to all federal, state and local government web resources and services.